Time;durP1;ratioP1;P1;durP2;ratioP2;P2;SDS_P1;SDS_P2;PMS_P1;PMS_P2;Temp;Humidity;BMP_temperature;BMP_pressure;BME280_temperature;BME280_humidity;BME280_pressure;Samples;Min_cycle;Max_cycle;Signal;HPM_P1;HPM_P2
2020/12/06 00:01:24;;;;;;;32.63;14.75;;;6.40;96.70;;;;;;5050914;28;20083;-70
2020/12/06 00:03:50;;;;;;;27.70;14.18;;;6.30;96.90;;;;;;5050817;28;20437;-71
2020/12/06 00:06:21;;;;;;;24.83;13.50;;;6.20;97.00;;;;;;5049690;28;20025;-71
2020/12/06 00:08:52;;;;;;;26.20;13.73;;;6.30;97.00;;;;;;5050901;28;20027;-69
2020/12/06 00:11:18;;;;;;;25.17;12.18;;;6.30;97.00;;;;;;5050603;28;20024;-70
2020/12/06 00:13:45;;;;;;;26.30;14.43;;;6.40;96.80;;;;;;5050327;28;20029;-70
2020/12/06 00:16:17;;;;;;;24.50;13.68;;;6.50;96.80;;;;;;5049294;28;20328;-70
2020/12/06 00:18:45;;;;;;;24.63;12.93;;;6.60;96.80;;;;;;5050117;28;20080;-70
2020/12/06 00:21:11;;;;;;;;;;;6.50;96.60;;;;;;5049622;28;20485;-70
2020/12/06 00:23:37;;;;;;;28.50;13.45;;;6.40;96.70;;;;;;5050428;28;19904;-70
2020/12/06 00:26:03;;;;;;;28.60;14.18;;;6.50;96.80;;;;;;5052126;28;20108;-70
2020/12/06 00:28:29;;;;;;;25.70;13.32;;;6.50;96.70;;;;;;5049386;28;20037;-70
2020/12/06 00:30:55;;;;;;;27.95;13.88;;;6.50;96.70;;;;;;5050469;28;20040;-70
2020/12/06 00:33:21;;;;;;;29.45;13.43;;;6.50;96.70;;;;;;5049949;28;20033;-71
2020/12/06 00:35:47;;;;;;;26.00;13.73;;;6.60;96.80;;;;;;5050263;28;20040;-72
2020/12/06 00:38:13;;;;;;;29.00;15.27;;;6.60;96.70;;;;;;5051396;28;20653;-72
2020/12/06 00:40:38;;;;;;;30.42;13.98;;;6.50;96.70;;;;;;5049944;28;20506;-72
2020/12/06 00:43:04;;;;;;;26.25;14.13;;;6.40;96.80;;;;;;5050247;28;20374;-71
2020/12/06 00:45:30;;;;;;;22.92;13.35;;;6.40;96.80;;;;;;5050938;28;20056;-71
2020/12/06 00:47:55;;;;;;;28.77;13.00;;;6.50;96.80;;;;;;5054133;28;20044;-70
2020/12/06 00:50:21;;;;;;;24.15;12.65;;;6.50;96.70;;;;;;5054519;28;20029;-70
2020/12/06 00:52:47;;;;;;;24.55;12.65;;;6.50;96.80;;;;;;5053991;28;20095;-69
2020/12/06 00:55:12;;;;;;;22.33;12.32;;;6.50;97.10;;;;;;5054115;28;20455;-69
2020/12/06 00:57:38;;;;;;;26.08;11.60;;;6.50;96.80;;;;;;5051994;28;20126;-69
2020/12/06 01:00:08;;;;;;;20.75;11.60;;;6.60;96.80;;;;;;5053777;28;20459;-68
2020/12/06 01:02:33;;;;;;;22.83;12.15;;;6.50;96.80;;;;;;5055510;28;20033;-68
2020/12/06 01:04:59;;;;;;;23.17;11.88;;;6.40;96.90;;;;;;5053647;28;20124;-69
2020/12/06 01:07:25;;;;;;;24.58;11.73;;;6.30;97.00;;;;;;5053755;28;20036;-70
2020/12/06 01:09:50;;;;;;;22.15;11.68;;;6.30;97.00;;;;;;5053670;28;20032;-69
2020/12/06 01:12:16;;;;;;;20.88;11.60;;;6.30;97.10;;;;;;5053656;28;20025;-72
2020/12/06 01:14:42;;;;;;;20.65;11.57;;;6.30;97.10;;;;;;5053304;28;20025;-70
2020/12/06 01:17:08;;;;;;;20.05;12.07;;;6.30;97.20;;;;;;5054114;28;20088;-69
2020/12/06 01:19:33;;;;;;;21.58;11.93;;;6.30;97.10;;;;;;5052357;28;20045;-71
2020/12/06 01:21:59;;;;;;;22.80;11.82;;;6.20;97.10;;;;;;5053608;28;20044;-69
2020/12/06 01:24:24;;;;;;;25.00;13.27;;;6.30;97.10;;;;;;5053910;28;20040;-68
2020/12/06 01:26:50;;;;;;;22.63;12.05;;;6.30;97.10;;;;;;5053343;28;20029;-69
2020/12/06 01:29:16;;;;;;;23.88;12.38;;;6.30;97.10;;;;;;5053929;28;20037;-69
2020/12/06 01:31:47;;;;;;;23.98;12.50;;;6.40;97.00;;;;;;5053307;28;20055;-69
2020/12/06 01:34:13;;;;;;;23.20;12.50;;;6.40;97.00;;;;;;5053332;28;20124;-69
2020/12/06 01:36:39;;;;;;;20.52;11.35;;;6.30;97.10;;;;;;5053002;28;20041;-68
2020/12/06 01:39:05;;;;;;;21.92;11.65;;;6.30;97.20;;;;;;5052955;28;20037;-69
2020/12/06 01:41:31;;;;;;;21.80;11.77;;;6.40;97.30;;;;;;5054785;28;20025;-69
2020/12/06 01:43:57;;;;;;;22.98;11.90;;;6.30;97.20;;;;;;5053191;28;20025;-69
2020/12/06 01:46:24;;;;;;;20.50;11.85;;;6.20;97.30;;;;;;5052157;28;20421;-69
2020/12/06 01:48:51;;;;;;;25.33;12.00;;;6.20;97.30;;;;;;5052832;28;20032;-69
2020/12/06 01:51:18;;;;;;;22.75;11.55;;;6.20;97.30;;;;;;5052897;28;20095;-70
2020/12/06 01:53:49;;;;;;;26.48;11.98;;;6.20;97.30;;;;;;5052707;28;20117;-68
2020/12/06 01:56:15;;;;;;;21.85;11.85;;;6.30;97.30;;;;;;5054877;28;20036;-70
2020/12/06 01:58:41;;;;;;;22.95;11.70;;;6.30;97.40;;;;;;5051872;28;20111;-69
2020/12/06 02:01:11;;;;;;;23.83;11.85;;;6.30;97.30;;;;;;5051524;28;20033;-69
2020/12/06 02:03:37;;;;;;;25.75;12.27;;;6.30;97.40;;;;;;5052820;28;20029;-69
2020/12/06 02:06:04;;;;;;;20.65;11.65;;;6.20;97.40;;;;;;5052714;28;20033;-68
2020/12/06 02:08:29;;;;;;;24.98;12.27;;;6.20;97.40;;;;;;5054255;28;20025;-69
2020/12/06 02:10:55;;;;;;;20.40;11.50;;;6.20;97.50;;;;;;5052543;28;20364;-68
2020/12/06 02:13:22;;;;;;;22.13;12.38;;;6.10;97.60;;;;;;5052503;28;20045;-69
2020/12/06 02:15:48;;;;;;;23.13;12.43;;;6.20;97.70;;;;;;5052625;28;20039;-69
2020/12/06 02:18:14;;;;;;;23.83;12.43;;;6.20;97.70;;;;;;5052530;28;20401;-69
2020/12/06 02:20:41;;;;;;;23.30;12.05;;;6.20;97.70;;;;;;5051235;28;20021;-68
2020/12/06 02:23:06;;;;;;;24.90;12.07;;;6.30;97.70;;;;;;5054305;28;20431;-69
2020/12/06 02:25:36;;;;;;;23.60;12.27;;;6.20;97.70;;;;;;5052224;28;20059;-71
2020/12/06 02:28:03;;;;;;;24.38;12.73;;;6.20;97.80;;;;;;5052336;28;20374;-69
2020/12/06 02:30:29;;;;;;;25.45;12.60;;;6.30;97.90;;;;;;5052246;28;20052;-69
2020/12/06 02:32:54;;;;;;;23.25;12.27;;;6.40;97.90;;;;;;5052052;28;20075;-70
2020/12/06 02:35:21;;;;;;;24.48;12.52;;;6.40;97.80;;;;;;5053591;28;20059;-69
2020/12/06 02:37:47;;;;;;;27.60;12.13;;;6.40;97.90;;;;;;5052211;28;20090;-69
2020/12/06 02:40:13;;;;;;;23.08;12.63;;;6.40;97.90;;;;;;5051917;28;20416;-70
2020/12/06 02:42:38;;;;;;;22.58;12.30;;;6.40;97.80;;;;;;5051910;28;20041;-68
2020/12/06 02:45:05;;;;;;;26.55;13.25;;;6.50;97.80;;;;;;5051641;28;20081;-69
2020/12/06 02:47:31;;;;;;;26.55;13.52;;;6.40;97.70;;;;;;5053421;28;20020;-69
2020/12/06 02:49:56;;;;;;;26.23;13.65;;;6.30;97.80;;;;;;5051937;28;20344;-68
2020/12/06 02:52:22;;;;;;;29.73;13.45;;;6.40;98.00;;;;;;5051466;28;20163;-68
2020/12/06 02:54:47;;;;;;;22.55;11.73;;;6.50;98.00;;;;;;5051758;28;20029;-68
2020/12/06 02:57:13;;;;;;;24.25;13.07;;;6.50;97.80;;;;;;5051879;28;20037;-69
2020/12/06 02:59:39;;;;;;;27.77;13.98;;;6.50;98.00;;;;;;5050359;28;20520;-70
2020/12/06 03:02:05;;;;;;;25.23;13.13;;;6.40;97.90;;;;;;5053190;28;20094;-69
2020/12/06 03:04:30;;;;;;;26.80;13.45;;;6.40;98.00;;;;;;5051600;28;20060;-69
2020/12/06 03:06:56;;;;;;;24.98;13.07;;;6.40;98.20;;;;;;5051897;28;20032;-68
2020/12/06 03:09:22;;;;;;;29.52;13.15;;;6.40;98.20;;;;;;5050299;28;20341;-68
2020/12/06 03:11:48;;;;;;;26.83;13.57;;;6.50;98.10;;;;;;5051652;28;20029;-70
2020/12/06 03:14:13;;;;;;;30.15;13.18;;;6.50;98.10;;;;;;5052922;28;20087;-71
2020/12/06 03:16:39;;;;;;;29.58;13.45;;;6.60;98.10;;;;;;5051413;28;20112;-69
2020/12/06 03:19:05;;;;;;;27.02;13.45;;;6.60;98.10;;;;;;5051228;28;20045;-68
2020/12/06 03:21:31;;;;;;;25.23;13.43;;;6.70;97.90;;;;;;5051421;28;20033;-69
2020/12/06 03:23:56;;;;;;;27.15;13.85;;;6.60;97.90;;;;;;5051062;28;20033;-69
2020/12/06 03:26:22;;;;;;;26.25;14.50;;;6.60;97.80;;;;;;5051598;28;20470;-68
2020/12/06 03:28:47;;;;;;;27.23;14.00;;;6.60;97.90;;;;;;5051150;28;20112;-68
2020/12/06 03:31:13;;;;;;;25.30;12.90;;;6.60;97.80;;;;;;5050458;28;20124;-71
2020/12/06 03:33:39;;;;;;;27.15;14.23;;;6.60;97.80;;;;;;5049948;28;20489;-69
2020/12/06 03:36:05;;;;;;;24.35;12.93;;;6.60;97.90;;;;;;5051026;28;20029;-69
2020/12/06 03:38:30;;;;;;;23.63;13.63;;;6.60;97.70;;;;;;5052676;28;20028;-69
2020/12/06 03:40:56;;;;;;;26.13;14.02;;;6.50;97.80;;;;;;5050916;28;20033;-68
2020/12/06 03:43:22;;;;;;;29.48;13.73;;;6.50;98.10;;;;;;5050957;28;20505;-69
2020/12/06 03:45:47;;;;;;;26.58;13.40;;;6.50;97.90;;;;;;5050767;28;20124;-70
2020/12/06 03:48:13;;;;;;;26.45;13.63;;;6.50;97.80;;;;;;5050779;28;20033;-69
2020/12/06 03:50:39;;;;;;;25.70;13.55;;;6.60;98.20;;;;;;5050650;28;20517;-69
2020/12/06 03:53:04;;;;;;;26.50;14.13;;;6.60;97.90;;;;;;5051968;28;20059;-68
2020/12/06 03:55:30;;;;;;;25.95;14.38;;;6.60;97.80;;;;;;5050689;28;20088;-69
2020/12/06 03:57:56;;;;;;;29.67;13.77;;;6.60;97.80;;;;;;5049619;28;20324;-69
2020/12/06 04:00:21;;;;;;;27.10;13.48;;;6.60;97.80;;;;;;5050428;28;20130;-71
2020/12/06 04:02:50;;;;;;;27.77;13.65;;;6.60;97.90;;;;;;5049371;28;20063;-69
2020/12/06 04:05:20;;;;;;;30.60;14.80;;;6.70;97.90;;;;;;5052123;28;20366;-68
2020/12/06 04:07:50;;;;;;;26.60;13.18;;;6.60;97.90;;;;;;5049972;28;20418;-68
2020/12/06 04:10:17;;;;;;;26.52;14.32;;;6.60;97.80;;;;;;5049327;28;20025;-69
2020/12/06 04:12:44;;;;;;;29.33;14.35;;;6.60;98.00;;;;;;5050072;28;20029;-69
2020/12/06 04:15:10;;;;;;;28.77;14.43;;;6.60;98.00;;;;;;5050379;28;20029;-69
2020/12/06 04:17:36;;;;;;;26.30;13.70;;;6.60;97.90;;;;;;5050460;28;20028;-69
2020/12/06 04:20:03;;;;;;;27.92;14.23;;;6.70;98.00;;;;;;5051462;28;20516;-70
2020/12/06 04:22:28;;;;;;;27.85;14.10;;;6.70;97.90;;;;;;5050132;28;20095;-69
2020/12/06 04:24:54;;;;;;;26.88;13.80;;;6.70;98.00;;;;;;5050120;28;20037;-69
2020/12/06 04:27:20;;;;;;;27.90;13.82;;;6.70;97.90;;;;;;5049241;28;20051;-69
2020/12/06 04:29:45;;;;;;;28.80;13.82;;;6.70;97.90;;;;;;5050179;28;20439;-68
2020/12/06 04:32:11;;;;;;;30.08;14.45;;;6.70;97.90;;;;;;5051390;28;20128;-68
2020/12/06 04:34:37;;;;;;;29.55;12.93;;;6.80;98.00;;;;;;5049977;28;20071;-68
2020/12/06 04:37:06;;;;;;;27.30;14.73;;;6.80;97.90;;;;;;5049981;28;20052;-69
2020/12/06 04:39:32;;;;;;;26.58;13.32;;;6.80;97.90;;;;;;5050041;28;20041;-68
2020/12/06 04:42:02;;;;;;;26.88;13.57;;;6.70;97.90;;;;;;5050310;28;20040;-68
2020/12/06 04:44:28;;;;;;;28.88;14.77;;;6.60;98.10;;;;;;5051585;28;20050;-68
2020/12/06 04:47:06;;;;;;;28.42;14.05;;;6.60;98.40;;;;;;5048800;28;20359;-69
2020/12/06 04:49:52;;;;;;;30.77;14.85;;;6.50;98.20;;;;;;5049965;28;20120;-68
2020/12/06 04:52:19;;;;;;;28.58;14.13;;;6.60;98.40;;;;;;5049962;28;20553;-69
2020/12/06 04:54:57;;;;;;;29.77;14.20;;;6.60;98.40;;;;;;5050234;28;20068;-69
2020/12/06 04:57:23;;;;;;;;;;;6.70;98.40;;;;;;5050255;28;20413;-69
2020/12/06 04:59:52;;;;;;;25.50;13.02;;;6.70;98.50;;;;;;5049881;28;19916;-68
2020/12/06 05:02:19;;;;;;;27.30;13.48;;;6.60;98.50;;;;;;5051179;28;20025;-70
2020/12/06 05:04:47;;;;;;;24.27;13.60;;;6.60;98.50;;;;;;5049866;28;20079;-68
2020/12/06 05:07:16;;;;;;;23.77;13.07;;;6.60;98.50;;;;;;5048950;28;20437;-70
2020/12/06 05:09:46;;;;;;;28.85;14.07;;;6.60;98.60;;;;;;5049893;28;20063;-69
2020/12/06 05:12:11;;;;;;;26.33;13.80;;;6.50;98.50;;;;;;5050037;28;20041;-69
2020/12/06 05:14:37;;;;;;;24.48;13.07;;;6.50;98.70;;;;;;5048364;28;20032;-68
2020/12/06 05:17:03;;;;;;;27.63;14.32;;;6.70;98.70;;;;;;5051385;28;20107;-69
2020/12/06 05:19:29;;;;;;;31.85;14.27;;;6.70;98.60;;;;;;5049438;28;20502;-70
2020/12/06 05:21:55;;;;;;;25.70;13.43;;;6.60;98.60;;;;;;5049567;28;20052;-68
2020/12/06 05:24:21;;;;;;;28.58;14.43;;;6.60;98.60;;;;;;5049540;28;20033;-68
2020/12/06 05:26:46;;;;;;;28.63;14.15;;;6.50;98.70;;;;;;5049626;28;20359;-68
2020/12/06 05:29:14;;;;;;;29.38;14.23;;;6.60;98.80;;;;;;5050934;28;20037;-69
2020/12/06 05:31:40;;;;;;;30.17;13.60;;;6.60;98.80;;;;;;5049694;28;20037;-69
2020/12/06 05:34:05;;;;;;;25.58;13.50;;;6.60;98.90;;;;;;5052591;28;20044;-70
2020/12/06 05:36:31;;;;;;;28.80;12.95;;;6.70;98.80;;;;;;5053081;28;20059;-68
2020/12/06 05:38:57;;;;;;;32.85;15.68;;;6.70;98.70;;;;;;5053101;28;20071;-68
2020/12/06 05:41:22;;;;;;;24.35;13.23;;;6.60;98.80;;;;;;5054701;28;20484;-69
2020/12/06 05:43:48;;;;;;;28.83;14.27;;;6.60;98.80;;;;;;5051784;28;20047;-69
2020/12/06 05:46:15;;;;;;;27.42;13.50;;;6.70;98.80;;;;;;5053017;28;20047;-69
2020/12/06 05:48:43;;;;;;;26.73;13.35;;;6.70;98.70;;;;;;5052974;28;20360;-69
2020/12/06 05:51:10;;;;;;;27.10;14.15;;;6.60;98.70;;;;;;5052504;28;20068;-68
2020/12/06 05:53:36;;;;;;;25.02;13.02;;;6.60;98.80;;;;;;5052603;28;20289;-69
2020/12/06 05:56:13;;;;;;;28.75;13.70;;;6.60;98.80;;;;;;5054670;28;20025;-69
2020/12/06 05:58:41;;;;;;;25.58;13.45;;;6.70;98.80;;;;;;5052905;28;20037;-68
2020/12/06 06:01:07;;;;;;;23.55;13.23;;;6.60;98.70;;;;;;5052750;28;20071;-69
2020/12/06 06:03:37;;;;;;;27.48;14.13;;;6.60;98.80;;;;;;5052937;28;20037;-69
2020/12/06 06:06:07;;;;;;;28.00;13.75;;;6.70;98.80;;;;;;5052724;28;20045;-70
2020/12/06 06:08:40;;;;;;;26.45;13.60;;;6.70;98.70;;;;;;5054374;28;20021;-69
2020/12/06 06:11:38;;;;;;;25.52;14.13;;;6.70;98.60;;;;;;5053017;28;20037;-69
2020/12/06 06:14:08;;;;;;;27.88;14.57;;;6.60;98.70;;;;;;5037413;28;20459;-70
2020/12/06 06:16:35;;;;;;;26.58;13.05;;;6.60;98.80;;;;;;5051569;28;20044;-69
2020/12/06 06:19:04;;;;;;;26.77;13.60;;;6.60;98.90;;;;;;5052446;28;20033;-68
2020/12/06 06:21:39;;;;;;;25.13;13.98;;;6.60;98.80;;;;;;5052663;28;20025;-68
2020/12/06 06:24:14;;;;;;;26.50;13.75;;;6.60;98.90;;;;;;5052211;28;20219;-68
2020/12/06 06:26:42;;;;;;;27.73;13.88;;;6.50;99.00;;;;;;5052272;28;20354;-68
2020/12/06 06:29:16;;;;;;;29.45;14.70;;;6.60;99.00;;;;;;5053639;28;20603;-68
2020/12/06 06:31:47;;;;;;;27.38;13.80;;;6.50;98.90;;;;;;5052042;28;20077;-69
2020/12/06 06:34:13;;;;;;;30.40;13.75;;;6.50;99.00;;;;;;5052344;28;20068;-69
2020/12/06 06:36:42;;;;;;;28.80;14.30;;;6.40;99.00;;;;;;5051999;28;20049;-69
2020/12/06 06:39:08;;;;;;;30.50;14.95;;;6.30;99.10;;;;;;5050956;28;20048;-69
2020/12/06 06:41:35;;;;;;;30.15;14.90;;;6.40;99.30;;;;;;5053804;28;20033;-69
2020/12/06 06:44:03;;;;;;;26.85;14.35;;;6.40;99.10;;;;;;5050884;28;20061;-68
2020/12/06 06:46:32;;;;;;;;;;;6.40;99.20;;;;;;5052526;28;20116;-68
2020/12/06 06:49:06;;;;;;;31.33;14.98;;;6.50;99.10;;;;;;5051864;28;20345;-70
2020/12/06 06:51:32;;;;;;;27.70;14.20;;;6.60;99.20;;;;;;5051903;28;20037;-69
2020/12/06 06:54:04;;;;;;;33.88;15.38;;;6.70;99.10;;;;;;5050636;28;20556;-69
2020/12/06 06:56:36;;;;;;;27.75;14.57;;;6.60;98.90;;;;;;5053303;28;20021;-69
2020/12/06 06:59:03;;;;;;;31.83;15.48;;;6.60;98.90;;;;;;5051875;28;20037;-70
2020/12/06 07:01:29;;;;;;;29.48;15.18;;;6.60;98.90;;;;;;5051534;28;20450;-69
2020/12/06 07:03:55;;;;;;;32.00;15.07;;;6.60;98.90;;;;;;5050584;28;20040;-69
2020/12/06 07:06:43;;;;;;;26.50;14.20;;;6.60;98.90;;;;;;5051740;28;20060;-68
2020/12/06 07:09:08;;;;;;;27.52;14.30;;;6.60;98.80;;;;;;5051846;28;20033;-68
2020/12/06 07:11:34;;;;;;;30.45;14.98;;;6.60;98.80;;;;;;5052973;28;20104;-70
2020/12/06 07:14:01;;;;;;;33.13;15.35;;;6.70;98.90;;;;;;5051711;28;20036;-68
2020/12/06 07:16:27;;;;;;;31.42;15.18;;;6.70;99.10;;;;;;5051345;28;20121;-70
2020/12/06 07:18:52;;;;;;;31.60;15.48;;;6.60;98.80;;;;;;5051078;28;20429;-69
2020/12/06 07:21:18;;;;;;;32.22;15.48;;;6.60;98.80;;;;;;5051908;28;20379;-69
2020/12/06 07:23:44;;;;;;;35.10;16.73;;;6.50;98.90;;;;;;5051411;28;20021;-70
2020/12/06 07:26:10;;;;;;;33.75;16.15;;;6.50;98.90;;;;;;5052754;28;20083;-70
2020/12/06 07:28:35;;;;;;;30.30;15.65;;;6.50;99.00;;;;;;5051557;28;20040;-68
2020/12/06 07:31:01;;;;;;;31.77;15.88;;;6.50;99.10;;;;;;5050940;28;20351;-71
2020/12/06 07:33:27;;;;;;;35.15;17.40;;;6.60;99.10;;;;;;5050122;28;20045;-71
2020/12/06 07:35:52;;;;;;;31.23;16.73;;;6.50;99.00;;;;;;5050845;28;20024;-70
2020/12/06 07:38:18;;;;;;;36.13;17.13;;;6.50;99.00;;;;;;5052367;28;20029;-68
2020/12/06 07:40:44;;;;;;;34.67;16.42;;;6.50;99.10;;;;;;5050787;28;20119;-70
2020/12/06 07:43:14;;;;;;;32.10;16.10;;;6.60;99.10;;;;;;5051119;28;20060;-70
2020/12/06 07:45:40;;;;;;;36.35;17.30;;;6.50;98.90;;;;;;5050609;28;20128;-70
2020/12/06 07:48:06;;;;;;;33.15;17.05;;;6.40;98.80;;;;;;5050943;28;20123;-70
2020/12/06 07:50:31;;;;;;;34.55;16.27;;;6.40;99.00;;;;;;5052594;28;20029;-70
2020/12/06 07:53:03;;;;;;;34.63;17.13;;;6.40;99.00;;;;;;5050625;28;20048;-71
2020/12/06 07:55:29;;;;;;;33.28;16.85;;;6.50;99.00;;;;;;5050087;28;20131;-74
2020/12/06 07:58:06;;;;;;;34.95;17.52;;;6.40;98.90;;;;;;5050875;28;20033;-70
2020/12/06 08:00:37;;;;;;;34.13;17.52;;;6.50;99.00;;;;;;5050789;28;20105;-68
2020/12/06 08:03:05;;;;;;;36.22;17.13;;;6.50;99.00;;;;;;5049577;28;20098;-70
2020/12/06 08:05:35;;;;;;;39.63;17.38;;;6.50;99.00;;;;;;5051191;28;20056;-70
2020/12/06 08:08:09;;;;;;;37.25;18.48;;;6.30;99.10;;;;;;5050711;28;20037;-69
2020/12/06 08:10:36;;;;;;;35.63;17.90;;;6.40;99.00;;;;;;5050147;28;20102;-69
2020/12/06 08:13:02;;;;;;;34.97;17.73;;;6.50;98.90;;;;;;5050815;28;20123;-82
2020/12/06 08:15:29;;;;;;;42.47;20.80;;;6.60;98.80;;;;;;5049370;28;20053;-86
2020/12/06 08:17:55;;;;;;;39.67;19.73;;;6.50;98.80;;;;;;5049625;28;20580;-72
2020/12/06 08:20:26;;;;;;;37.25;17.73;;;6.50;98.90;;;;;;5053185;28;20052;-88
2020/12/06 08:22:59;;;;;;;37.30;17.75;;;6.40;99.00;;;;;;5049630;28;20374;-71
2020/12/06 08:25:30;;;;;;;35.33;17.73;;;6.50;99.10;;;;;;5050430;28;20136;-72
2020/12/06 08:27:57;;;;;;;39.58;18.73;;;6.60;99.00;;;;;;5050109;28;20664;-72
2020/12/06 08:30:25;;;;;;;36.58;17.25;;;6.60;98.80;;;;;;5049508;28;20509;-72
2020/12/06 08:32:58;;;;;;;39.00;18.00;;;6.60;98.90;;;;;;5050440;28;20328;-72
2020/12/06 08:35:44;;;;;;;38.92;18.70;;;6.70;98.80;;;;;;5051585;28;20817;-73
2020/12/06 08:38:16;;;;;;;38.00;18.25;;;6.60;98.80;;;;;;5049075;28;20102;-70
2020/12/06 08:41:11;;;;;;;36.50;18.85;;;6.60;98.80;;;;;;5050395;28;20029;-75
2020/12/06 08:44:02;;;;;;;41.95;19.08;;;6.60;98.80;;;;;;5048802;28;20037;-73
2020/12/06 08:46:28;;;;;;;37.50;17.98;;;6.50;98.90;;;;;;5049838;28;20061;-73
2020/12/06 08:48:57;;;;;;;41.47;20.40;;;6.60;98.90;;;;;;5049889;28;20032;-77
2020/12/06 08:51:31;;;;;;;38.17;17.70;;;6.70;98.90;;;;;;5050081;28;20086;-74
2020/12/06 08:54:00;;;;;;;37.00;18.25;;;6.70;98.80;;;;;;5048606;28;20120;-75
2020/12/06 08:56:40;;;;;;;37.45;18.80;;;6.80;98.80;;;;;;5051891;28;20601;-74
2020/12/06 08:59:13;;;;;;;37.40;18.83;;;6.80;98.60;;;;;;5049031;28;20041;-73
2020/12/06 09:01:52;;;;;;;37.80;18.85;;;6.70;98.50;;;;;;5050700;28;20367;-75
2020/12/06 09:04:18;;;;;;;41.72;19.27;;;6.70;98.70;;;;;;5050037;28;20049;-72
2020/12/06 09:06:45;;;;;;;34.88;18.67;;;6.70;98.70;;;;;;5051419;28;20194;-74
2020/12/06 09:09:11;;;;;;;36.03;17.35;;;6.70;98.60;;;;;;5052801;28;20112;-77
2020/12/06 09:11:37;;;;;;;39.53;18.88;;;6.90;98.70;;;;;;5052814;28;20103;-78
2020/12/06 09:14:03;;;;;;;35.67;18.25;;;6.90;98.60;;;;;;5055514;28;20029;-73
2020/12/06 09:16:31;;;;;;;39.35;19.75;;;6.90;98.60;;;;;;5053629;28;20033;-75
2020/12/06 09:18:57;;;;;;;38.50;19.25;;;6.90;98.60;;;;;;5052343;28;20029;-73
2020/12/06 09:21:22;;;;;;;39.35;18.38;;;6.90;98.60;;;;;;5053542;28;20340;-74
2020/12/06 09:23:48;;;;;;;41.33;20.02;;;6.80;98.40;;;;;;5054028;28;20029;-72
2020/12/06 09:26:14;;;;;;;36.92;18.38;;;6.90;98.50;;;;;;5054832;28;20103;-72
2020/12/06 09:28:40;;;;;;;38.40;19.08;;;6.90;98.40;;;;;;5053288;28;20060;-73
2020/12/06 09:31:06;;;;;;;39.08;18.80;;;7.00;98.40;;;;;;5052027;28;20047;-72
2020/12/06 09:33:32;;;;;;;40.75;19.63;;;6.90;98.40;;;;;;5052386;28;20029;-72
2020/12/06 09:35:57;;;;;;;38.88;19.58;;;7.00;98.30;;;;;;5053363;28;20025;-72
2020/12/06 09:38:25;;;;;;;37.42;19.15;;;7.00;98.20;;;;;;5054877;28;20021;-72
2020/12/06 09:40:51;;;;;;;;;;;7.00;98.20;;;;;;5054262;28;20288;-73
2020/12/06 09:43:17;;;;;;;37.83;18.98;;;7.00;98.20;;;;;;5051912;28;20003;-71
2020/12/06 09:45:42;;;;;;;38.53;18.85;;;7.00;98.20;;;;;;5051972;28;20032;-73
2020/12/06 09:48:09;;;;;;;38.92;17.45;;;6.90;98.10;;;;;;5051894;28;20033;-73
2020/12/06 09:50:37;;;;;;;33.53;17.75;;;7.10;98.30;;;;;;5054667;28;20530;-73
2020/12/06 09:53:03;;;;;;;38.63;19.13;;;7.10;98.20;;;;;;5051834;28;20068;-72
2020/12/06 09:55:29;;;;;;;39.05;17.90;;;7.10;98.10;;;;;;5052940;28;20252;-73
2020/12/06 09:57:55;;;;;;;41.05;20.05;;;7.10;98.00;;;;;;5053084;28;20041;-78
2020/12/06 10:00:21;;;;;;;40.03;20.05;;;7.00;98.10;;;;;;5053330;28;20256;-75
2020/12/06 10:02:47;;;;;;;35.58;18.38;;;7.10;98.10;;;;;;5051584;28;20311;-84
2020/12/06 10:05:12;;;;;;;41.42;20.20;;;7.10;98.10;;;;;;5053057;28;20454;-74
2020/12/06 10:07:38;;;;;;;39.88;20.23;;;7.10;98.10;;;;;;5051668;28;20090;-73
2020/12/06 10:10:05;;;;;;;38.60;19.67;;;7.20;98.30;;;;;;5052500;28;20045;-73
2020/12/06 10:12:31;;;;;;;35.13;18.73;;;7.20;98.10;;;;;;5052981;28;20439;-72
2020/12/06 10:14:56;;;;;;;35.95;18.17;;;7.10;98.00;;;;;;5052869;28;20047;-72
2020/12/06 10:17:22;;;;;;;40.97;19.05;;;7.10;98.10;;;;;;5054311;28;20025;-71
2020/12/06 10:19:48;;;;;;;42.67;19.95;;;7.10;98.00;;;;;;5052033;28;20279;-70
2020/12/06 10:22:14;;;;;;;33.88;18.20;;;7.20;97.90;;;;;;5052495;28;20045;-71
2020/12/06 10:24:39;;;;;;;39.47;19.52;;;7.20;97.90;;;;;;5052422;28;20091;-71
2020/12/06 10:27:05;;;;;;;40.85;20.13;;;7.20;97.90;;;;;;5052379;28;20033;-73
2020/12/06 10:29:31;;;;;;;41.65;20.08;;;7.10;98.00;;;;;;5053514;28;20108;-71
2020/12/06 10:31:58;;;;;;;41.85;20.98;;;7.00;98.00;;;;;;5051043;28;20098;-71
2020/12/06 10:34:24;;;;;;;34.92;18.55;;;7.10;98.10;;;;;;5052287;28;20069;-69
2020/12/06 10:36:59;;;;;;;41.40;18.55;;;7.10;98.10;;;;;;5052367;28;20414;-71
2020/12/06 10:39:26;;;;;;;37.50;19.73;;;7.10;97.90;;;;;;5051877;28;20429;-71
2020/12/06 10:41:56;;;;;;;43.47;20.45;;;7.00;98.00;;;;;;5050770;28;20082;-71
2020/12/06 10:44:25;;;;;;;40.53;19.38;;;7.00;98.00;;;;;;5053915;28;20082;-71
2020/12/06 10:46:52;;;;;;;42.80;20.05;;;7.10;98.00;;;;;;5051720;28;20025;-73
2020/12/06 10:49:19;;;;;;;43.92;19.73;;;7.20;98.10;;;;;;5052102;28;20061;-73
2020/12/06 10:51:47;;;;;;;44.35;20.52;;;7.20;98.00;;;;;;5051450;28;20041;-71
2020/12/06 10:54:14;;;;;;;40.58;19.02;;;7.10;98.00;;;;;;5051978;28;20056;-77
2020/12/06 10:56:41;;;;;;;41.63;19.88;;;7.20;98.10;;;;;;5051992;28;20033;-74
2020/12/06 10:59:07;;;;;;;51.67;23.30;;;7.20;98.10;;;;;;5053447;28;20024;-76
2020/12/06 11:01:34;;;;;;;45.25;21.55;;;7.10;98.00;;;;;;5051776;28;20093;-74
2020/12/06 11:04:03;;;;;;;48.20;21.73;;;7.10;97.90;;;;;;5051618;28;20402;-75
2020/12/06 11:06:29;;;;;;;53.92;22.95;;;7.10;97.90;;;;;;5051706;28;20132;-78
2020/12/06 11:08:55;;;;;;;46.47;22.25;;;7.10;97.90;;;;;;5050261;28;20116;-81
2020/12/06 11:11:22;;;;;;;44.95;21.48;;;7.10;98.00;;;;;;5052359;28;20032;-80
2020/12/06 11:13:48;;;;;;;50.22;22.55;;;7.20;97.90;;;;;;5051896;28;20067;-88
2020/12/06 11:16:16;;;;;;;44.17;21.30;;;7.10;97.80;;;;;;5051171;28;20099;-85
2020/12/06 11:18:41;;;;;;;41.77;21.37;;;7.10;98.00;;;;;;5051119;28;20064;-73
2020/12/06 11:21:07;;;;;;;43.85;21.08;;;7.00;97.90;;;;;;5050617;28;20603;-71
2020/12/06 11:23:33;;;;;;;43.25;20.73;;;7.10;98.10;;;;;;5052140;28;20434;-72
2020/12/06 11:25:59;;;;;;;41.75;20.55;;;6.90;98.10;;;;;;5051074;28;20044;-75
2020/12/06 11:28:24;;;;;;;40.53;19.40;;;6.90;98.10;;;;;;5051590;28;20041;-74
2020/12/06 11:30:50;;;;;;;38.42;20.25;;;6.90;98.30;;;;;;5050213;28;20041;-74
2020/12/06 11:33:16;;;;;;;39.67;21.10;;;6.90;98.50;;;;;;5051276;28;20055;-74
2020/12/06 11:35:42;;;;;;;44.28;22.42;;;6.90;98.50;;;;;;5050602;28;20028;-73
2020/12/06 11:38:09;;;;;;;43.85;21.08;;;7.10;98.40;;;;;;5052603;28;20013;-74
2020/12/06 11:40:34;;;;;;;43.15;20.55;;;7.10;98.30;;;;;;5049801;28;20029;-74
2020/12/06 11:43:00;;;;;;;44.65;21.83;;;7.10;98.10;;;;;;5051308;28;20044;-80
2020/12/06 11:45:26;;;;;;;49.45;21.67;;;7.00;98.10;;;;;;5051660;28;20041;-83
2020/12/06 11:47:52;;;;;;;43.30;22.08;;;7.10;98.50;;;;;;5051215;28;20060;-83
2020/12/06 11:50:18;;;;;;;41.22;20.83;;;7.10;98.30;;;;;;5052150;28;20039;-83
2020/12/06 11:52:44;;;;;;;47.08;22.17;;;7.10;98.20;;;;;;5051956;28;20132;-84
2020/12/06 11:55:11;;;;;;;47.00;22.55;;;7.20;98.30;;;;;;5052229;28;20166;-89
2020/12/06 11:57:37;;;;;;;46.25;23.55;;;7.10;98.00;;;;;;5055001;28;20471;-84
2020/12/06 12:00:05;;;;;;;46.97;23.15;;;7.10;98.10;;;;;;5050108;28;20116;-80
2020/12/06 12:02:31;;;;;;;48.80;22.92;;;7.10;98.20;;;;;;5052228;28;20028;-74
2020/12/06 12:04:57;;;;;;;47.25;21.88;;;7.30;98.20;;;;;;5050358;28;20097;-72
2020/12/06 12:07:23;;;;;;;46.13;21.98;;;7.00;98.20;;;;;;5050503;28;20266;-73
2020/12/06 12:09:49;;;;;;;46.72;22.27;;;7.10;98.20;;;;;;5049436;28;20085;-75
2020/12/06 12:12:15;;;;;;;40.53;20.88;;;7.00;97.90;;;;;;5048959;28;20415;-78
2020/12/06 12:14:40;;;;;;;46.03;23.08;;;7.20;98.00;;;;;;5050898;28;20127;-80
2020/12/06 12:17:06;;;;;;;50.50;23.17;;;7.30;98.10;;;;;;5051116;28;20021;-74
2020/12/06 12:19:32;;;;;;;50.40;24.10;;;7.30;98.10;;;;;;5050190;28;20119;-75
2020/12/06 12:21:58;;;;;;;44.70;22.75;;;7.30;98.00;;;;;;5049717;28;20029;-76
2020/12/06 12:24:24;;;;;;;45.95;22.85;;;7.50;98.10;;;;;;5050318;28;20037;-78
2020/12/06 12:26:49;;;;;;;41.80;21.25;;;7.40;97.90;;;;;;5050431;28;20025;-84
2020/12/06 12:29:15;;;;;;;53.55;23.55;;;7.20;97.80;;;;;;5053724;28;20324;-87
2020/12/06 12:31:45;;;;;;;46.42;24.20;;;7.10;97.90;;;;;;5051897;28;20123;-85
2020/12/06 12:34:11;;;;;;;49.70;23.73;;;7.20;98.10;;;;;;5050240;28;20056;-82
2020/12/06 12:36:41;;;;;;;48.70;24.33;;;7.20;98.00;;;;;;5050414;28;20354;-75
2020/12/06 12:39:06;;;;;;;52.72;24.23;;;7.10;98.10;;;;;;5050134;28;20033;-78